<?xml version="1.0" encoding="UTF-8" standalone="no" ?>
<gpx xmlns="http://www.topografix.com/GPX/1/1" xmlns:xsi="http://www.w3.org/2001/XMLSchema-instance" xsi:schemaLocation="http://www.topografix.com/GPX/1/1 http://www.topografix.com/GPX/1/1/gpx.xsd" version="1.1" creator="VisuGPX - https://www.visugpx.com">
  <metadata>
    <name>luzech 6 descentes</name>
    <desc><![CDATA[parcours typé enduro avec de belles descentes]]></desc>
  </metadata>
  <trk>
    <name><![CDATA[2014-04-01-08-18-57]]></name>
    <trkseg>
      <trkpt lat="44.43698" lon="1.32002">
        <ele>300.334</ele>
        <time>2014-04-01T11:49:42Z</time>
      </trkpt>
      <trkpt lat="44.43702" lon="1.3199">
        <ele>299.793</ele>
        <time>2014-04-01T11:49:44Z</time>
      </trkpt>
      <trkpt lat="44.43708" lon="1.3197">
        <ele>299.043</ele>
        <time>2014-04-01T11:49:47Z</time>
      </trkpt>
      <trkpt lat="44.43709" lon="1.31946">
        <ele>297.041</ele>
        <time>2014-04-01T11:49:51Z</time>
      </trkpt>
      <trkpt lat="44.43714" lon="1.31934">
        <ele>296.984</ele>
        <time>2014-04-01T11:49:54Z</time>
      </trkpt>
      <trkpt lat="44.43719" lon="1.31927">
        <ele>297.294</ele>
        <time>2014-04-01T11:49:56Z</time>
      </trkpt>
      <trkpt lat="44.4373" lon="1.31911">
        <ele>297.744</ele>
        <time>2014-04-01T11:50:00Z</time>
      </trkpt>
      <trkpt lat="44.43733" lon="1.319">
        <ele>297.363</ele>
        <time>2014-04-01T11:50:02Z</time>
      </trkpt>
      <trkpt lat="44.43736" lon="1.31876">
        <ele>296.132</ele>
        <time>2014-04-01T11:50:06Z</time>
      </trkpt>
      <trkpt lat="44.43746" lon="1.31854">
        <ele>295.413</ele>
        <time>2014-04-01T11:50:10Z</time>
      </trkpt>
      <trkpt lat="44.43757" lon="1.31851">
        <ele>296.365</ele>
        <time>2014-04-01T11:50:13Z</time>
      </trkpt>
      <trkpt lat="44.43764" lon="1.31842">
        <ele>296.654</ele>
        <time>2014-04-01T11:50:16Z</time>
      </trkpt>
      <trkpt lat="44.43765" lon="1.31836">
        <ele>296.313</ele>
        <time>2014-04-01T11:50:17Z</time>
      </trkpt>
      <trkpt lat="44.43767" lon="1.31813">
        <ele>295.012</ele>
        <time>2014-04-01T11:50:20Z</time>
      </trkpt>
      <trkpt lat="44.43773" lon="1.31795">
        <ele>294.053</ele>
        <time>2014-04-01T11:50:23Z</time>
      </trkpt>
      <trkpt lat="44.43778" lon="1.31768">
        <ele>292.172</ele>
        <time>2014-04-01T11:50:27Z</time>
      </trkpt>
      <trkpt lat="44.43787" lon="1.31752">
        <ele>291.984</ele>
        <time>2014-04-01T11:50:30Z</time>
      </trkpt>
      <trkpt lat="44.43791" lon="1.3175">
        <ele>292.406</ele>
        <time>2014-04-01T11:50:31Z</time>
      </trkpt>
      <trkpt lat="44.43823" lon="1.31742">
        <ele>294.736</ele>
        <time>2014-04-01T11:50:39Z</time>
      </trkpt>
      <trkpt lat="44.43827" lon="1.31743">
        <ele>294.915</ele>
        <time>2014-04-01T11:50:40Z</time>
      </trkpt>
      <trkpt lat="44.43838" lon="1.31733">
        <ele>294.813</ele>
        <time>2014-04-01T11:50:44Z</time>
      </trkpt>
      <trkpt lat="44.43844" lon="1.31723">
        <ele>294.603</ele>
        <time>2014-04-01T11:50:46Z</time>
      </trkpt>
      <trkpt lat="44.43851" lon="1.31714">
        <ele>294.283</ele>
        <time>2014-04-01T11:50:48Z</time>
      </trkpt>
      <trkpt lat="44.43859" lon="1.31701">
        <ele>293.753</ele>
        <time>2014-04-01T11:50:52Z</time>
      </trkpt>
      <trkpt lat="44.43859" lon="1.317">
        <ele>293.739</ele>
        <time>2014-04-01T11:50:54Z</time>
      </trkpt>
    </trkseg>
  </trk>
</gpx>